Time;durP1;ratioP1;P1;durP2;ratioP2;P2;SDS_P1;SDS_P2;PMS_P1;PMS_P2;Temp;Humidity;BMP_temperature;BMP_pressure;BME280_temperature;BME280_humidity;BME280_pressure;Samples;Min_cycle;Max_cycle;Signal;HPM_P1;HPM_P2
2023/05/08 00:00:21;;;;;;;12.20;11.05;;;14.10;94.80;;;;;;5020186;28;20043;-71
2023/05/08 00:02:47;;;;;;;12.45;11.25;;;14.00;94.80;;;;;;5036545;28;20066;-71
2023/05/08 00:05:13;;;;;;;12.32;11.13;;;14.00;94.90;;;;;;5036884;28;20047;-71
2023/05/08 00:07:38;;;;;;;12.07;10.90;;;14.00;95.00;;;;;;5036499;28;20496;-71
2023/05/08 00:10:05;;;;;;;12.15;10.90;;;14.00;95.10;;;;;;5036546;28;20068;-71
2023/05/08 00:12:31;;;;;;;12.63;11.10;;;13.90;95.10;;;;;;5036428;28;20045;-71
2023/05/08 00:14:57;;;;;;;12.70;10.68;;;13.90;95.20;;;;;;5036352;28;20039;-71
2023/05/08 00:17:23;;;;;;;12.23;10.98;;;13.90;95.30;;;;;;5020012;28;20094;-71
2023/05/08 00:19:48;;;;;;;13.05;11.65;;;13.90;95.40;;;;;;5036472;28;20044;-71
2023/05/08 00:22:14;;;;;;;12.65;11.45;;;13.90;95.40;;;;;;5036197;28;20523;-71
2023/05/08 00:24:40;;;;;;;12.52;11.23;;;13.80;95.60;;;;;;5036499;28;20056;-70
2023/05/08 00:27:07;;;;;;;12.55;11.25;;;13.80;95.70;;;;;;5036180;28;20374;-70
2023/05/08 00:29:33;;;;;;;12.45;11.13;;;13.80;95.90;;;;;;5036087;28;20045;-70
2023/05/08 00:31:59;;;;;;;13.82;11.52;;;13.80;95.90;;;;;;5053960;28;20037;-70
2023/05/08 00:34:25;;;;;;;12.85;11.48;;;13.80;96.00;;;;;;5054108;28;20029;-71
2023/05/08 00:36:51;;;;;;;12.65;11.35;;;13.80;96.00;;;;;;5036067;28;20490;-70
2023/05/08 00:39:17;;;;;;;11.68;10.27;;;13.80;96.00;;;;;;5036133;28;20506;-70
2023/05/08 00:41:42;;;;;;;13.55;11.90;;;13.70;96.10;;;;;;5035882;28;20122;-70
2023/05/08 00:44:08;;;;;;;12.98;10.60;;;13.70;96.10;;;;;;5035734;28;20095;-70
2023/05/08 00:46:35;;;;;;;14.55;10.93;;;13.70;96.10;;;;;;5019182;28;20170;-70
2023/05/08 00:49:03;;;;;;;12.63;11.32;;;13.70;96.00;;;;;;5035759;28;20116;-70
2023/05/08 00:51:29;;;;;;;11.95;10.85;;;13.70;96.00;;;;;;5035726;28;20041;-70
2023/05/08 00:53:54;;;;;;;12.13;10.98;;;13.70;96.10;;;;;;5035893;28;20052;-70
2023/05/08 00:56:22;;;;;;;13.00;11.70;;;13.60;96.20;;;;;;5035649;28;20102;-70
2023/05/08 00:58:48;;;;;;;12.20;10.93;;;13.60;96.20;;;;;;5035499;28;20052;-70
2023/05/08 01:01:14;;;;;;;12.98;11.63;;;13.50;96.10;;;;;;5035494;28;20041;-70
2023/05/08 01:03:41;;;;;;;11.98;10.85;;;13.50;96.10;;;;;;5035572;28;20041;-70
2023/05/08 01:06:07;;;;;;;13.40;12.00;;;13.50;96.30;;;;;;5035452;28;20041;-70
2023/05/08 01:08:33;;;;;;;14.32;11.77;;;13.50;96.40;;;;;;5035382;28;20141;-70
2023/05/08 01:11:48;;;;;;;12.00;10.85;;;13.40;96.50;;;;;;5035448;28;20045;-70
2023/05/08 01:14:41;;;;;;;12.27;10.98;;;13.40;96.40;;;;;;5029521;28;20057;-70
2023/05/08 01:17:21;;;;;;;12.63;11.43;;;13.30;96.70;;;;;;5035339;28;20049;-70
2023/05/08 01:20:14;;;;;;;15.25;11.60;;;13.30;96.80;;;;;;5053078;28;20078;-70
2023/05/08 01:23:07;;;;;;;15.18;11.80;;;13.30;96.80;;;;;;5035232;28;20048;-70
2023/05/08 01:25:45;;;;;;;;;;;13.30;96.80;;;;;;5053552;28;20060;-70
2023/05/08 01:28:35;;;;;;;12.45;11.23;;;13.10;97.00;;;;;;5035101;28;19923;-70
2023/05/08 01:31:31;;;;;;;12.50;11.27;;;13.10;97.20;;;;;;5035432;28;20528;-70
2023/05/08 01:34:09;;;;;;;12.57;11.30;;;13.10;97.40;;;;;;5035347;28;20080;-70
2023/05/08 01:36:51;;;;;;;13.40;11.43;;;13.10;97.40;;;;;;5035445;28;20098;-70
2023/05/08 01:40:01;;;;;;;12.90;11.60;;;13.10;97.50;;;;;;5035083;28;20497;-70
2023/05/08 01:42:32;;;;;;;11.82;10.65;;;13.00;97.80;;;;;;5009523;28;20056;-70
2023/05/08 01:45:09;;;;;;;12.40;11.30;;;12.90;97.90;;;;;;5035247;28;20041;-70
2023/05/08 01:47:37;;;;;;;13.02;11.35;;;12.90;98.10;;;;;;5036802;28;20037;-70
2023/05/08 01:50:09;;;;;;;12.52;11.32;;;12.90;98.20;;;;;;5022639;28;20037;-70
2023/05/08 01:52:41;;;;;;;;;;;12.90;98.20;;;;;;5039930;28;20080;-70
2023/05/08 01:55:15;;;;;;;12.55;11.30;;;12.80;98.40;;;;;;5039101;28;19924;-70
2023/05/08 01:57:47;;;;;;;13.55;12.25;;;12.80;98.40;;;;;;5039170;28;20502;-70
2023/05/08 02:00:16;;;;;;;12.23;11.13;;;12.80;98.40;;;;;;5039040;28;20163;-70
2023/05/08 02:02:43;;;;;;;13.02;11.73;;;12.80;98.40;;;;;;5038779;28;20125;-70
2023/05/08 02:05:09;;;;;;;12.52;11.32;;;12.80;98.50;;;;;;5038819;28;20463;-70
2023/05/08 02:07:38;;;;;;;13.45;11.27;;;12.80;98.50;;;;;;5038768;28;20120;-70
2023/05/08 02:10:06;;;;;;;12.25;11.07;;;12.80;98.50;;;;;;5022176;28;20116;-70
2023/05/08 02:12:34;;;;;;;12.02;10.82;;;12.80;98.70;;;;;;5038893;28;20076;-70
2023/05/08 02:15:01;;;;;;;12.00;10.80;;;12.70;98.70;;;;;;5038960;28;20048;-70
2023/05/08 02:17:29;;;;;;;12.30;11.00;;;12.70;98.80;;;;;;5038762;28;20081;-70
2023/05/08 02:19:56;;;;;;;12.45;11.25;;;12.70;98.80;;;;;;5038623;28;20495;-70
2023/05/08 02:22:23;;;;;;;13.60;11.73;;;12.60;98.80;;;;;;5056533;28;20044;-70
2023/05/08 02:24:54;;;;;;;12.45;11.25;;;12.60;98.90;;;;;;5038423;28;20477;-70
2023/05/08 02:27:21;;;;;;;13.57;12.20;;;12.60;99.10;;;;;;5056584;28;20041;-70
2023/05/08 02:29:50;;;;;;;13.30;11.88;;;12.50;99.20;;;;;;5038267;28;20041;-70
2023/05/08 02:32:17;;;;;;;13.60;12.23;;;12.50;99.30;;;;;;5038389;28;20434;-70
2023/05/08 02:34:44;;;;;;;13.32;12.13;;;12.50;99.40;;;;;;5038324;28;20048;-70
2023/05/08 02:37:11;;;;;;;13.60;11.45;;;12.50;99.50;;;;;;5021744;28;20051;-70
2023/05/08 02:39:38;;;;;;;13.95;12.55;;;12.40;99.40;;;;;;5038127;28;20037;-70
2023/05/08 02:42:04;;;;;;;11.82;10.63;;;12.40;99.40;;;;;;5056047;28;20076;-70
2023/05/08 02:44:30;;;;;;;13.40;12.00;;;12.40;99.60;;;;;;5038089;28;20096;-70
2023/05/08 02:47:05;;;;;;;13.88;11.05;;;12.40;99.70;;;;;;5037971;28;20073;-70
2023/05/08 02:49:54;;;;;;;12.85;11.55;;;12.40;99.70;;;;;;5037909;28;20036;-70
2023/05/08 02:52:38;;;;;;;12.18;11.00;;;12.40;99.60;;;;;;5037999;28;20090;-70
2023/05/08 02:55:19;;;;;;;12.90;11.65;;;12.40;99.70;;;;;;5021769;28;20052;-70
2023/05/08 02:58:04;;;;;;;13.10;11.80;;;12.40;99.70;;;;;;5037679;28;20493;-70
2023/05/08 03:00:41;;;;;;;12.57;11.13;;;12.30;99.80;;;;;;5021396;28;20033;-70
2023/05/08 03:03:27;;;;;;;12.85;11.60;;;12.30;99.80;;;;;;5037837;28;20041;-70
2023/05/08 03:05:58;;;;;;;13.07;10.98;;;12.30;99.90;;;;;;5037787;28;20102;-70
2023/05/08 03:08:29;;;;;;;13.35;12.10;;;12.30;99.90;;;;;;5037619;28;20041;-70
2023/05/08 03:11:00;;;;;;;13.80;10.93;;;12.30;99.90;;;;;;5037916;28;20430;-70
2023/05/08 03:13:30;;;;;;;12.32;11.10;;;12.20;99.90;;;;;;5037658;28;20045;-70
2023/05/08 03:15:59;;;;;;;13.50;12.20;;;12.20;99.90;;;;;;5037551;28;20121;-70
2023/05/08 03:18:33;;;;;;;12.52;11.32;;;12.20;99.90;;;;;;5055216;28;20076;-70
2023/05/08 03:21:00;;;;;;;12.95;11.70;;;12.20;99.90;;;;;;5037424;28;20044;-70
2023/05/08 03:23:28;;;;;;;12.25;10.95;;;12.20;99.90;;;;;;5037315;28;20045;-70
2023/05/08 03:25:56;;;;;;;13.43;12.23;;;12.20;99.90;;;;;;5055181;28;20045;-70
2023/05/08 03:28:23;;;;;;;12.80;11.50;;;12.20;99.90;;;;;;5037257;28;20073;-71
2023/05/08 03:30:50;;;;;;;13.30;11.98;;;12.10;99.90;;;;;;5037225;28;20501;-70
2023/05/08 03:33:16;;;;;;;12.65;11.35;;;12.20;99.90;;;;;;5037233;28;20080;-70
2023/05/08 03:35:44;;;;;;;13.23;11.43;;;12.10;99.90;;;;;;5037416;28;20135;-70
2023/05/08 03:38:10;;;;;;;13.25;11.30;;;12.10;99.90;;;;;;5037051;28;20045;-70
2023/05/08 03:40:41;;;;;;;13.05;11.63;;;12.10;99.90;;;;;;5037024;28;20041;-70
2023/05/08 03:43:08;;;;;;;12.52;11.32;;;12.00;99.90;;;;;;5020511;28;20041;-70
2023/05/08 03:45:35;;;;;;;12.70;11.50;;;12.00;99.90;;;;;;5037022;28;20044;-70
2023/05/08 03:48:03;;;;;;;12.63;11.43;;;12.00;99.90;;;;;;5036757;28;20080;-70
2023/05/08 03:50:30;;;;;;;14.15;12.63;;;12.00;99.90;;;;;;5054974;28;20045;-70
2023/05/08 03:52:57;;;;;;;15.50;11.57;;;12.00;99.90;;;;;;5036851;28;20044;-70
2023/05/08 03:55:23;;;;;;;12.77;11.48;;;11.90;99.90;;;;;;5036822;28;20444;-70
2023/05/08 03:58:13;;;;;;;13.02;11.68;;;11.90;99.90;;;;;;5036739;28;20037;-70
2023/05/08 04:01:02;;;;;;;12.00;10.90;;;11.90;99.90;;;;;;5037006;28;20485;-69
2023/05/08 04:03:40;;;;;;;12.00;10.80;;;11.90;99.90;;;;;;5036748;28;20132;-70
2023/05/08 04:06:25;;;;;;;13.45;12.05;;;11.80;99.90;;;;;;5020196;28;20041;-70
2023/05/08 04:09:25;;;;;;;13.07;11.68;;;11.80;99.90;;;;;;5036517;28;20051;-70
2023/05/08 04:11:59;;;;;;;12.55;11.23;;;11.80;99.90;;;;;;5006345;28;20049;-70
2023/05/08 04:14:29;;;;;;;11.25;10.15;;;11.70;99.90;;;;;;5036472;28;20409;-70
2023/05/08 04:17:01;;;;;;;12.43;11.20;;;11.80;99.90;;;;;;5036641;28;20053;-70
2023/05/08 04:19:32;;;;;;;12.27;11.00;;;11.70;99.90;;;;;;5036290;28;20132;-70
2023/05/08 04:22:02;;;;;;;12.57;11.27;;;11.70;99.90;;;;;;5036318;28;20120;-70
2023/05/08 04:24:30;;;;;;;12.63;11.35;;;11.70;99.90;;;;;;5036230;28;20116;-70
2023/05/08 04:26:57;;;;;;;15.40;11.70;;;11.80;99.90;;;;;;5036163;28;20053;-70
2023/05/08 04:29:23;;;;;;;12.82;11.50;;;11.70;99.90;;;;;;5036125;28;20072;-70
2023/05/08 04:31:49;;;;;;;12.40;11.15;;;11.70;99.90;;;;;;5036112;28;20045;-70
2023/05/08 04:34:16;;;;;;;13.48;11.50;;;11.70;99.90;;;;;;5019624;28;20044;-70
2023/05/08 04:36:42;;;;;;;13.40;11.32;;;11.70;99.90;;;;;;5054130;28;20059;-70
2023/05/08 04:39:07;;;;;;;12.93;11.63;;;11.70;99.90;;;;;;5036150;28;20045;-70
2023/05/08 04:41:34;;;;;;;12.40;11.20;;;11.70;99.90;;;;;;5035934;28;20465;-70
2023/05/08 04:44:00;;;;;;;11.95;10.68;;;11.70;99.90;;;;;;5035791;28;20094;-70
2023/05/08 04:46:26;;;;;;;12.02;10.88;;;11.60;99.90;;;;;;5019207;28;20049;-70
2023/05/08 04:48:51;;;;;;;12.60;11.40;;;11.70;99.90;;;;;;5036018;28;20025;-70
2023/05/08 04:51:17;;;;;;;12.07;10.77;;;11.70;99.90;;;;;;5035815;28;20427;-70
2023/05/08 04:53:42;;;;;;;12.95;11.60;;;11.70;99.90;;;;;;5035768;28;20067;-70
2023/05/08 04:56:08;;;;;;;11.98;10.65;;;11.70;99.90;;;;;;5035721;28;20163;-70
2023/05/08 04:58:34;;;;;;;12.02;10.82;;;11.70;99.90;;;;;;5035837;28;20049;-70
2023/05/08 05:01:03;;;;;;;11.15;10.07;;;11.70;99.90;;;;;;5035605;28;20083;-70
2023/05/08 05:03:29;;;;;;;12.77;11.38;;;11.70;99.90;;;;;;5035618;28;20049;-70
2023/05/08 05:06:01;;;;;;;12.48;11.25;;;11.70;99.90;;;;;;5035533;28;20037;-70
2023/05/08 05:08:26;;;;;;;11.95;10.85;;;11.70;99.90;;;;;;5035425;28;20052;-70
2023/05/08 05:10:52;;;;;;;12.27;11.10;;;11.70;99.90;;;;;;5035739;28;20045;-70
2023/05/08 05:13:18;;;;;;;12.18;10.77;;;11.70;99.90;;;;;;5035442;28;20094;-70
2023/05/08 05:15:44;;;;;;;11.90;10.63;;;11.80;99.90;;;;;;5035625;28;20040;-71
2023/05/08 05:18:10;;;;;;;14.55;10.30;;;11.70;99.90;;;;;;5035311;28;20072;-70
2023/05/08 05:20:36;;;;;;;14.55;10.57;;;11.80;99.90;;;;;;5018807;28;20045;-70
2023/05/08 05:23:02;;;;;;;11.23;10.15;;;11.80;99.90;;;;;;5052404;28;20048;-70
2023/05/08 05:25:28;;;;;;;11.57;10.48;;;11.80;99.90;;;;;;5018988;28;20044;-70
2023/05/08 05:27:54;;;;;;;12.60;10.57;;;11.80;99.90;;;;;;5035192;28;20046;-69
2023/05/08 05:30:19;;;;;;;12.18;11.05;;;11.90;99.90;;;;;;5035495;28;20059;-69
2023/05/08 05:32:45;;;;;;;10.68;9.57;;;11.90;99.90;;;;;;5035099;28;20033;-69
2023/05/08 05:35:11;;;;;;;11.15;10.02;;;12.00;99.90;;;;;;5035445;28;20075;-69
2023/05/08 05:37:36;;;;;;;10.88;9.88;;;12.00;99.90;;;;;;5053420;28;20052;-70
2023/05/08 05:40:02;;;;;;;11.57;9.85;;;12.10;99.90;;;;;;5053252;28;20071;-70
2023/05/08 05:42:28;;;;;;;12.18;10.50;;;12.10;99.90;;;;;;5034961;28;20526;-70
2023/05/08 05:44:55;;;;;;;10.43;9.40;;;12.10;99.90;;;;;;5035110;28;20481;-70
2023/05/08 05:47:21;;;;;;;10.70;9.60;;;12.10;99.90;;;;;;5034997;28;20037;-70
2023/05/08 05:49:46;;;;;;;11.43;9.98;;;12.10;99.90;;;;;;5035010;28;20141;-69
2023/05/08 05:52:13;;;;;;;12.10;9.77;;;12.20;99.90;;;;;;5035020;28;20037;-70
2023/05/08 05:54:40;;;;;;;11.55;10.27;;;12.20;99.90;;;;;;5018517;28;20176;-70
2023/05/08 05:57:06;;;;;;;10.48;9.35;;;12.20;99.90;;;;;;5018498;28;20074;-70
2023/05/08 05:59:32;;;;;;;13.10;10.95;;;12.20;99.90;;;;;;5035106;28;20119;-70
2023/05/08 06:01:58;;;;;;;11.65;10.13;;;12.30;99.90;;;;;;5034916;28;20533;-70
2023/05/08 06:04:23;;;;;;;13.23;9.70;;;12.30;99.90;;;;;;5034883;28;20037;-70
2023/05/08 06:06:49;;;;;;;11.10;10.00;;;12.40;99.90;;;;;;5034882;28;20041;-70
2023/05/08 06:09:14;;;;;;;11.07;9.93;;;12.40;99.90;;;;;;5034995;28;20055;-70
2023/05/08 06:11:41;;;;;;;11.85;10.20;;;12.50;99.90;;;;;;5034878;28;20041;-70
2023/05/08 06:14:06;;;;;;;10.98;9.80;;;12.50;99.90;;;;;;5034827;28;20166;-70
2023/05/08 06:16:34;;;;;;;13.23;9.60;;;12.60;99.90;;;;;;5035085;28;20049;-70
2023/05/08 06:18:59;;;;;;;10.65;9.57;;;12.70;99.90;;;;;;5052718;28;20045;-69
2023/05/08 06:21:27;;;;;;;11.43;9.57;;;12.80;99.90;;;;;;5034988;28;20067;-69
2023/05/08 06:23:53;;;;;;;10.10;9.10;;;12.80;99.90;;;;;;5034626;28;20068;-70
2023/05/08 06:26:18;;;;;;;10.00;9.10;;;12.90;99.90;;;;;;5052302;28;20081;-70
2023/05/08 06:28:44;;;;;;;10.38;9.13;;;13.00;99.90;;;;;;5034580;28;20114;-69
2023/05/08 06:31:10;;;;;;;9.60;8.60;;;13.00;99.90;;;;;;5034582;28;20036;-70
2023/05/08 06:33:35;;;;;;;10.50;9.00;;;13.10;99.90;;;;;;5019705;28;20036;-70
2023/05/08 06:36:03;;;;;;;11.68;9.68;;;13.30;99.90;;;;;;5038334;28;20123;-70
2023/05/08 06:38:29;;;;;;;10.77;9.50;;;13.40;99.90;;;;;;5038174;28;20524;-69
2023/05/08 06:40:55;;;;;;;11.32;8.93;;;13.50;99.90;;;;;;5038214;28;20041;-69
2023/05/08 06:43:20;;;;;;;9.98;8.98;;;13.70;99.90;;;;;;5055927;28;20107;-69
2023/05/08 06:45:46;;;;;;;10.43;9.43;;;13.80;99.90;;;;;;5038171;28;20198;-70
2023/05/08 06:48:11;;;;;;;9.95;8.95;;;14.00;99.90;;;;;;5038227;28;20060;-69
2023/05/08 06:50:38;;;;;;;10.20;9.13;;;14.00;99.70;;;;;;5038128;28;20048;-69
2023/05/08 06:53:04;;;;;;;10.13;9.13;;;14.10;99.60;;;;;;5038014;28;20044;-70
2023/05/08 06:55:29;;;;;;;10.45;9.35;;;14.10;99.90;;;;;;5056188;28;20074;-70
2023/05/08 06:57:55;;;;;;;10.57;9.40;;;14.20;99.90;;;;;;5037928;28;20508;-69
2023/05/08 07:00:21;;;;;;;9.43;8.57;;;14.30;99.40;;;;;;5038150;28;20037;-69
2023/05/08 07:02:46;;;;;;;10.88;9.35;;;14.40;99.20;;;;;;5021546;28;20494;-69
2023/05/08 07:05:12;;;;;;;9.65;8.68;;;14.50;99.00;;;;;;5037820;28;20090;-70
2023/05/08 07:07:37;;;;;;;10.27;9.27;;;14.50;98.70;;;;;;5055759;28;20060;-69
2023/05/08 07:10:03;;;;;;;10.85;9.48;;;14.60;98.80;;;;;;5037724;28;20041;-71
2023/05/08 07:12:29;;;;;;;10.43;9.38;;;14.70;98.90;;;;;;5037558;28;20037;-71
2023/05/08 07:14:54;;;;;;;10.85;9.75;;;14.70;98.80;;;;;;5037632;28;20041;-70
2023/05/08 07:17:20;;;;;;;10.07;9.07;;;14.70;98.60;;;;;;5037547;28;20140;-70
2023/05/08 07:19:50;;;;;;;9.68;8.77;;;14.90;98.40;;;;;;5037419;28;20072;-70
2023/05/08 07:22:15;;;;;;;9.73;8.80;;;14.90;98.10;;;;;;5037455;28;20045;-70
2023/05/08 07:24:41;;;;;;;10.90;9.80;;;15.00;98.00;;;;;;5037378;28;20106;-70
2023/05/08 07:27:07;;;;;;;10.30;9.18;;;15.00;98.10;;;;;;5037481;28;20072;-70
2023/05/08 07:29:34;;;;;;;10.38;9.38;;;15.10;98.10;;;;;;5037362;28;20111;-70
2023/05/08 07:32:00;;;;;;;10.57;9.57;;;15.20;97.90;;;;;;5037410;28;20512;-70
2023/05/08 07:34:26;;;;;;;9.73;8.57;;;15.30;97.70;;;;;;5037239;28;20044;-70
2023/05/08 07:36:52;;;;;;;10.95;9.00;;;15.40;97.40;;;;;;5037200;28;20043;-70
2023/05/08 07:39:18;;;;;;;10.40;9.40;;;15.50;97.10;;;;;;5037311;28;20053;-70
2023/05/08 07:41:44;;;;;;;10.10;9.10;;;15.60;97.00;;;;;;5037146;28;20562;-70
2023/05/08 07:44:10;;;;;;;10.95;8.77;;;15.90;96.60;;;;;;5036665;28;20545;-70
2023/05/08 07:46:36;;;;;;;10.90;9.02;;;16.00;96.30;;;;;;5036486;28;20124;-70
2023/05/08 07:49:01;;;;;;;9.48;8.45;;;16.10;95.80;;;;;;5055016;28;20401;-70
2023/05/08 07:51:27;;;;;;;9.70;8.65;;;16.10;96.20;;;;;;5037026;28;20433;-70
2023/05/08 07:53:53;;;;;;;11.40;8.57;;;16.20;95.70;;;;;;5036774;28;20056;-70
2023/05/08 07:56:21;;;;;;;10.48;9.38;;;16.30;95.60;;;;;;5036831;28;20044;-70
2023/05/08 07:58:46;;;;;;;11.95;8.98;;;16.30;95.60;;;;;;5036697;28;20052;-70
2023/05/08 08:01:12;;;;;;;12.98;9.05;;;16.30;95.80;;;;;;5036749;28;20055;-70
2023/05/08 08:03:38;;;;;;;11.85;9.38;;;16.30;95.80;;;;;;5036716;28;20191;-70
2023/05/08 08:06:03;;;;;;;11.60;10.35;;;16.30;95.80;;;;;;5054771;28;20037;-70
2023/05/08 08:08:29;;;;;;;11.48;10.30;;;16.30;96.00;;;;;;5036527;28;20029;-70
2023/05/08 08:10:54;;;;;;;11.85;10.25;;;16.30;96.60;;;;;;5036810;28;20045;-70
2023/05/08 08:13:20;;;;;;;11.00;9.90;;;16.50;96.50;;;;;;5054796;28;20115;-70
2023/05/08 08:15:46;;;;;;;10.73;9.60;;;16.70;96.00;;;;;;5054579;28;20505;-70
2023/05/08 08:18:11;;;;;;;10.35;9.45;;;16.90;95.90;;;;;;5020076;28;20044;-70
2023/05/08 08:20:37;;;;;;;10.82;9.82;;;17.10;95.00;;;;;;5054459;28;20044;-70
2023/05/08 08:23:03;;;;;;;11.43;9.95;;;17.30;95.20;;;;;;5054116;28;20033;-70
2023/05/08 08:25:28;;;;;;;13.63;10.98;;;17.40;95.00;;;;;;5036391;28;20041;-70
2023/05/08 08:27:54;;;;;;;12.55;10.88;;;17.50;94.20;;;;;;5036184;28;20044;-70
2023/05/08 08:30:20;;;;;;;11.65;10.45;;;17.80;94.40;;;;;;5036145;28;20053;-70
2023/05/08 08:32:46;;;;;;;12.98;10.32;;;17.90;93.70;;;;;;5054244;28;20041;-70
2023/05/08 08:35:11;;;;;;;13.27;9.55;;;18.00;93.90;;;;;;5036420;28;20045;-71
2023/05/08 08:37:37;;;;;;;11.35;9.93;;;18.20;93.40;;;;;;5054496;28;20041;-70
2023/05/08 08:40:03;;;;;;;11.88;10.68;;;18.50;93.00;;;;;;5054490;28;20044;-70
2023/05/08 08:42:28;;;;;;;10.70;9.73;;;18.70;92.80;;;;;;5019431;28;20549;-71
2023/05/08 08:44:54;;;;;;;12.70;10.55;;;18.80;92.30;;;;;;5035909;28;20151;-71
2023/05/08 08:47:32;;;;;;;11.45;10.30;;;18.80;92.00;;;;;;5053588;28;20082;-70
2023/05/08 08:50:02;;;;;;;11.07;10.07;;;18.90;91.90;;;;;;5053641;28;20541;-70
2023/05/08 08:52:57;;;;;;;11.63;10.45;;;18.90;91.70;;;;;;5035997;28;20509;-70
2023/05/08 08:55:25;;;;;;;13.10;10.18;;;18.90;91.30;;;;;;5053617;28;20536;-70
2023/05/08 08:58:24;;;;;;;10.77;9.68;;;18.90;90.90;;;;;;5035744;28;20135;-70
2023/05/08 09:00:50;;;;;;;13.23;10.50;;;18.90;90.00;;;;;;5035649;28;20072;-71
2023/05/08 09:03:16;;;;;;;12.95;11.13;;;18.90;90.70;;;;;;5035703;28;20111;-71
2023/05/08 09:05:43;;;;;;;11.57;10.45;;;19.00;90.40;;;;;;5035502;28;20037;-70
2023/05/08 09:08:09;;;;;;;11.85;10.65;;;19.10;90.40;;;;;;5035404;28;20120;-70
2023/05/08 09:10:35;;;;;;;11.68;10.68;;;19.20;90.30;;;;;;5035430;28;20076;-70
2023/05/08 09:13:02;;;;;;;11.40;10.25;;;19.20;90.20;;;;;;5053299;28;20084;-70
2023/05/08 09:15:28;;;;;;;11.57;10.30;;;19.30;90.00;;;;;;5035630;28;20041;-71
2023/05/08 09:17:53;;;;;;;12.55;10.65;;;19.40;90.40;;;;;;5035551;28;20452;-68
2023/05/08 09:20:20;;;;;;;10.90;9.90;;;19.50;89.90;;;;;;5035605;28;20051;-68
2023/05/08 09:22:46;;;;;;;10.65;9.65;;;19.70;90.00;;;;;;5035259;28;20087;-68
2023/05/08 09:25:12;;;;;;;11.43;10.10;;;19.80;89.30;;;;;;5035449;28;20060;-69
2023/05/08 09:27:38;;;;;;;10.63;9.30;;;20.00;88.30;;;;;;5035239;28;20496;-68
2023/05/08 09:30:06;;;;;;;11.35;10.18;;;20.20;88.60;;;;;;5035311;28;20052;-69
2023/05/08 09:32:33;;;;;;;10.98;9.88;;;20.40;87.00;;;;;;5035436;28;20033;-69
2023/05/08 09:34:59;;;;;;;11.07;9.93;;;20.70;86.80;;;;;;5035411;28;20130;-69
2023/05/08 09:37:26;;;;;;;10.80;9.77;;;20.90;84.00;;;;;;5035157;28;20044;-69
2023/05/08 09:39:52;;;;;;;11.23;9.18;;;21.10;84.00;;;;;;5018605;28;20116;-68
2023/05/08 09:42:17;;;;;;;10.25;8.88;;;21.30;83.40;;;;;;5035100;28;20528;-69
2023/05/08 09:44:44;;;;;;;10.60;8.80;;;21.50;82.40;;;;;;5035041;28;20045;-69
2023/05/08 09:47:15;;;;;;;9.88;8.77;;;21.80;81.60;;;;;;5018469;28;20045;-69
2023/05/08 09:50:00;;;;;;;9.77;8.88;;;22.00;81.20;;;;;;5052807;28;20086;-68
2023/05/08 09:52:27;;;;;;;10.13;8.98;;;22.00;79.60;;;;;;5034937;28;20041;-68
2023/05/08 09:55:07;;;;;;;10.77;9.52;;;22.10;78.80;;;;;;5053076;28;20067;-70
2023/05/08 09:57:37;;;;;;;11.05;8.95;;;22.00;78.20;;;;;;5035141;28;20412;-70
2023/05/08 10:00:10;;;;;;;11.48;10.05;;;22.00;79.50;;;;;;5034905;28;20037;-68
2023/05/08 10:02:37;;;;;;;11.70;9.75;;;22.00;77.60;;;;;;5035062;28;20041;-68
2023/05/08 10:05:05;;;;;;;12.18;11.07;;;22.20;78.40;;;;;;5035107;28;20041;-69
2023/05/08 10:07:36;;;;;;;10.93;9.82;;;22.10;78.30;;;;;;5034753;28;20029;-68
2023/05/08 10:10:05;;;;;;;11.95;10.75;;;22.20;79.20;;;;;;5038773;28;20049;-68
2023/05/08 10:12:32;;;;;;;10.52;9.50;;;22.30;78.60;;;;;;5039023;28;20044;-69
2023/05/08 10:14:58;;;;;;;10.82;9.57;;;22.50;78.30;;;;;;5039298;28;20175;-69
2023/05/08 10:18:03;;;;;;;12.60;11.38;;;22.70;78.60;;;;;;5038613;28;20029;-67
2023/05/08 10:20:30;;;;;;;14.57;10.88;;;22.70;78.20;;;;;;5038813;28;20048;-67
2023/05/08 10:22:57;;;;;;;11.43;10.38;;;22.90;77.80;;;;;;5056316;28;20120;-68
2023/05/08 10:25:24;;;;;;;12.38;11.18;;;23.00;76.90;;;;;;5056605;28;20041;-68
2023/05/08 10:28:23;;;;;;;11.43;10.35;;;23.00;76.50;;;;;;5056257;28;20424;-68
2023/05/08 10:30:49;;;;;;;10.45;9.07;;;22.90;77.90;;;;;;5038953;28;20115;-69
2023/05/08 10:33:24;;;;;;;12.32;10.50;;;23.10;77.40;;;;;;5038346;28;20049;-69
2023/05/08 10:35:50;;;;;;;11.30;10.10;;;23.30;74.90;;;;;;5021939;28;20522;-69
2023/05/08 10:38:16;;;;;;;12.48;11.10;;;23.30;75.20;;;;;;5038187;28;20041;-68
2023/05/08 10:40:42;;;;;;;12.75;11.35;;;23.50;76.30;;;;;;5056723;28;20124;-68
2023/05/08 10:43:10;;;;;;;13.43;12.00;;;23.60;74.60;;;;;;5055946;28;20045;-68
2023/05/08 10:45:36;;;;;;;14.02;12.63;;;23.60;75.40;;;;;;5038156;28;20049;-68
2023/05/08 10:48:24;;;;;;;14.88;11.85;;;23.40;75.40;;;;;;5037848;28;20139;-68
2023/05/08 10:50:59;;;;;;;14.45;13.10;;;23.40;76.40;;;;;;5021548;28;20033;-68
2023/05/08 10:54:00;;;;;;;13.90;12.45;;;23.20;76.50;;;;;;5038131;28;20125;-69
2023/05/08 10:56:27;;;;;;;13.18;11.98;;;23.10;77.90;;;;;;5038544;28;20053;-69
2023/05/08 10:58:57;;;;;;;14.48;13.05;;;22.90;77.00;;;;;;5038154;28;20048;-69
2023/05/08 11:01:24;;;;;;;17.25;13.20;;;23.00;77.10;;;;;;5037898;28;20123;-69
2023/05/08 11:03:51;;;;;;;12.80;11.57;;;23.00;77.20;;;;;;5037853;28;20103;-69
2023/05/08 11:06:37;;;;;;;13.82;11.70;;;23.10;76.40;;;;;;5055599;28;20052;-68
2023/05/08 11:09:02;;;;;;;12.55;11.05;;;23.20;75.90;;;;;;5055325;28;20080;-68
2023/05/08 11:11:37;;;;;;;15.00;11.68;;;23.40;75.60;;;;;;5037853;28;20529;-68
2023/05/08 11:14:10;;;;;;;15.25;11.05;;;23.80;74.60;;;;;;5037628;28;20056;-68
2023/05/08 11:16:58;;;;;;;11.52;10.43;;;24.20;75.00;;;;;;5055461;28;20162;-69
2023/05/08 11:19:25;;;;;;;13.32;12.02;;;24.50;74.60;;;;;;5037660;28;20162;-69
2023/05/08 11:22:09;;;;;;;11.60;10.40;;;24.70;74.30;;;;;;5037684;28;20041;-69
2023/05/08 11:24:36;;;;;;;12.30;11.10;;;24.70;72.20;;;;;;5021037;28;20132;-69
2023/05/08 11:27:02;;;;;;;13.30;10.65;;;24.50;73.00;;;;;;5055210;28;20048;-69
2023/05/08 11:29:28;;;;;;;12.15;11.05;;;24.50;73.20;;;;;;5037955;28;20049;-68
2023/05/08 11:31:53;;;;;;;12.40;11.23;;;24.50;73.70;;;;;;5021008;28;20482;-68
2023/05/08 11:34:41;;;;;;;13.73;12.35;;;24.80;73.60;;;;;;5037578;28;20591;-68
2023/05/08 11:37:10;;;;;;;12.07;10.98;;;25.00;71.20;;;;;;5037421;28;20512;-69
2023/05/08 11:39:36;;;;;;;13.10;11.70;;;25.10;71.10;;;;;;5037019;28;20045;-69
2023/05/08 11:42:23;;;;;;;11.65;10.45;;;25.30;71.00;;;;;;5054951;28;20029;-69
2023/05/08 11:45:09;;;;;;;12.48;11.13;;;25.30;70.10;;;;;;5036981;28;20075;-69
2023/05/08 11:47:40;;;;;;;13.63;11.20;;;25.20;71.00;;;;;;5036349;28;20068;-69
2023/05/08 11:50:08;;;;;;;10.38;9.30;;;25.20;71.70;;;;;;5037040;28;20406;-69
2023/05/08 11:52:35;;;;;;;12.30;9.15;;;25.10;72.50;;;;;;5054789;28;20040;-68
2023/05/08 11:55:06;;;;;;;12.20;10.38;;;25.00;71.70;;;;;;5036854;28;20037;-69
2023/05/08 11:57:32;;;;;;;10.52;9.07;;;24.80;71.40;;;;;;5036677;28;20037;-69
2023/05/08 12:00:08;;;;;;;13.98;11.05;;;24.90;71.50;;;;;;5037104;28;20052;-68
2023/05/08 12:02:38;;;;;;;10.73;9.73;;;24.90;71.00;;;;;;5036710;28;20041;-69
2023/05/08 12:05:08;;;;;;;13.32;11.63;;;25.10;69.60;;;;;;5036700;28;20044;-69
2023/05/08 12:07:46;;;;;;;12.80;11.55;;;25.20;69.70;;;;;;5036767;28;20055;-69
2023/05/08 12:10:12;;;;;;;12.82;11.35;;;25.10;70.40;;;;;;5020323;28;20033;-69
2023/05/08 12:12:42;;;;;;;13.00;11.55;;;24.90;70.70;;;;;;5036768;28;20084;-69
2023/05/08 12:15:10;;;;;;;12.93;11.50;;;24.90;69.80;;;;;;5036456;28;20049;-69
2023/05/08 12:17:36;;;;;;;11.65;9.52;;;24.90;70.00;;;;;;5036533;28;20037;-68
2023/05/08 12:20:13;;;;;;;14.75;10.63;;;25.00;70.30;;;;;;5036383;28;20516;-69
2023/05/08 12:22:49;;;;;;;13.15;11.77;;;24.90;69.00;;;;;;5036315;28;20043;-69
2023/05/08 12:25:16;;;;;;;14.20;11.93;;;24.70;70.80;;;;;;5037386;28;20132;-69
2023/05/08 12:27:42;;;;;;;12.45;11.15;;;24.60;70.20;;;;;;5036429;28;20051;-69
2023/05/08 12:30:10;;;;;;;12.38;10.07;;;24.30;70.90;;;;;;5054294;28;20040;-69
2023/05/08 12:32:38;;;;;;;12.38;11.15;;;24.30;71.30;;;;;;5035709;28;20540;-69
2023/05/08 12:35:07;;;;;;;13.20;11.90;;;24.50;71.30;;;;;;5054492;28;20037;-69
2023/05/08 12:37:33;;;;;;;11.98;10.75;;;24.70;71.10;;;;;;5035896;28;20127;-69
2023/05/08 12:39:59;;;;;;;14.23;10.65;;;24.70;70.70;;;;;;5054386;28;20487;-69
2023/05/08 12:42:49;;;;;;;11.98;10.88;;;25.00;72.30;;;;;;5053752;28;20036;-69